createdAt,value
2023-07-03T00:00:27.408Z,23.72
2023-07-03T00:01:02.203Z,23.73
2023-07-03T00:01:34.490Z,23.72
2023-07-03T00:02:07.265Z,23.71
2023-07-03T00:02:39.851Z,23.72
2023-07-03T00:03:15.423Z,23.71
2023-07-03T00:03:47.720Z,23.71
2023-07-03T00:04:20.189Z,23.71
2023-07-03T00:04:55.186Z,23.71
2023-07-03T00:05:27.622Z,23.71
2023-07-03T00:05:59.969Z,23.72
2023-07-03T00:06:57.728Z,23.71
2023-07-03T00:07:30.038Z,23.65
2023-07-03T00:08:04.842Z,23.66
2023-07-03T00:08:50.367Z,23.66
2023-07-03T00:09:27.784Z,23.64
2023-07-03T00:10:15.890Z,23.62
2023-07-03T00:10:50.729Z,23.62
2023-07-03T00:11:43.821Z,23.61
2023-07-03T00:12:16.046Z,23.60
2023-07-03T00:12:51.543Z,23.62
2023-07-03T00:13:23.760Z,23.63
2023-07-03T00:13:56.126Z,23.64
2023-07-03T00:14:30.960Z,23.67
2023-07-03T00:15:03.573Z,23.65
2023-07-03T00:15:35.863Z,23.66
2023-07-03T00:16:10.847Z,23.67
2023-07-03T00:16:43.192Z,23.67
2023-07-03T00:17:15.436Z,23.67
2023-07-03T00:17:50.238Z,23.66
2023-07-03T00:18:22.593Z,23.67
2023-07-03T00:18:54.887Z,23.64
2023-07-03T00:19:28.067Z,23.64
2023-07-03T00:20:02.996Z,23.62
2023-07-03T00:20:35.270Z,23.61
2023-07-03T00:21:07.501Z,23.59
2023-07-03T00:21:44.695Z,23.58
2023-07-03T00:22:17.313Z,23.55
2023-07-03T00:22:49.773Z,23.56
2023-07-03T00:23:25.128Z,23.55
2023-07-03T00:23:57.354Z,23.55
2023-07-03T00:24:32.923Z,23.55
2023-07-03T00:25:09.002Z,23.54
2023-07-03T00:25:42.303Z,23.53
2023-07-03T00:26:14.739Z,23.52
2023-07-03T00:26:47.007Z,23.52
2023-07-03T00:27:21.820Z,23.52
2023-07-03T00:27:55.282Z,23.52
2023-07-03T00:28:27.569Z,23.53
2023-07-03T00:29:02.378Z,23.53
2023-07-03T00:29:36.138Z,23.51
2023-07-03T00:30:09.841Z,23.52
2023-07-03T00:30:42.956Z,23.53
2023-07-03T00:31:17.786Z,23.53
2023-07-03T00:31:50.144Z,23.51
2023-07-03T00:32:22.457Z,23.51
2023-07-03T00:32:57.319Z,23.50
2023-07-03T00:33:29.653Z,23.50
2023-07-03T00:34:02.108Z,23.47
2023-07-03T00:34:37.431Z,23.46
2023-07-03T00:35:10.483Z,23.44
2023-07-03T00:35:42.732Z,23.41
2023-07-03T00:36:18.861Z,23.40
2023-07-03T00:36:51.301Z,23.38
2023-07-03T00:37:23.672Z,23.37
2023-07-03T00:37:58.470Z,23.36
2023-07-03T00:38:30.842Z,23.34
2023-07-03T00:39:03.120Z,23.32
2023-07-03T00:39:40.537Z,23.30
2023-07-03T00:40:14.080Z,23.27
2023-07-03T00:40:46.287Z,23.26
2023-07-03T00:41:21.475Z,23.26
2023-07-03T00:41:53.826Z,23.25
2023-07-03T00:42:26.782Z,23.26
2023-07-03T00:43:02.142Z,23.25
2023-07-03T00:43:34.974Z,23.26
2023-07-03T00:44:10.490Z,23.28
2023-07-03T00:44:45.826Z,23.26
2023-07-03T00:45:18.172Z,23.25
2023-07-03T00:45:50.582Z,23.25
2023-07-03T00:46:25.904Z,23.24
2023-07-03T00:46:58.200Z,23.23
2023-07-03T00:47:30.654Z,23.24
2023-07-03T00:48:05.542Z,23.24
2023-07-03T00:48:39.880Z,23.22
2023-07-03T00:49:12.667Z,23.22
2023-07-03T00:49:47.539Z,23.22
2023-07-03T00:50:20.399Z,23.22
2023-07-03T00:50:55.364Z,23.22
2023-07-03T00:51:27.772Z,23.25
2023-07-03T00:52:02.244Z,23.24
2023-07-03T00:52:35.135Z,23.22
2023-07-03T00:53:14.108Z,23.25
2023-07-03T00:53:48.056Z,23.23
2023-07-03T00:54:20.362Z,23.21
2023-07-03T00:54:59.238Z,23.22
2023-07-03T00:55:32.731Z,23.20
2023-07-03T00:56:05.629Z,23.21
2023-07-03T00:56:40.459Z,23.19
2023-07-03T00:57:14.667Z,23.19
2023-07-03T00:57:46.958Z,23.17
2023-07-03T00:58:21.802Z,23.17
2023-07-03T00:58:54.272Z,23.15
2023-07-03T00:59:26.968Z,23.15
2023-07-03T01:00:03.878Z,23.14
2023-07-03T01:00:42.708Z,23.13
2023-07-03T01:01:24.219Z,23.12
2023-07-03T01:02:09.040Z,23.10
2023-07-03T01:02:48.033Z,23.07
2023-07-03T01:03:28.053Z,23.07
2023-07-03T01:04:08.061Z,23.06
2023-07-03T01:04:46.351Z,23.06
2023-07-03T01:05:26.725Z,23.04
2023-07-03T01:06:03.120Z,23.05
2023-07-03T01:06:41.264Z,23.03
2023-07-03T01:07:15.979Z,23.07
2023-07-03T01:07:51.263Z,23.07
2023-07-03T01:08:24.236Z,23.08
2023-07-03T01:09:01.438Z,23.09
2023-07-03T01:09:37.535Z,23.06
2023-07-03T01:10:19.549Z,23.07
2023-07-03T01:10:51.992Z,23.05
2023-07-03T01:11:24.863Z,23.07
2023-07-03T01:12:01.535Z,23.08
2023-07-03T01:12:40.213Z,23.07
2023-07-03T01:17:03.307Z,22.97
2023-07-03T01:17:52.702Z,23.00
2023-07-03T01:18:39.134Z,23.01
2023-07-03T01:19:15.838Z,23.02
2023-07-03T01:19:49.870Z,23.04
2023-07-03T01:20:27.018Z,23.05
2023-07-03T01:21:05.052Z,23.06
2023-07-03T01:21:44.258Z,23.09
2023-07-03T01:22:26.154Z,23.10
2023-07-03T01:23:05.475Z,23.08
2023-07-03T01:23:43.605Z,23.10
2023-07-03T01:24:27.880Z,23.12
2023-07-03T01:25:01.844Z,23.10
2023-07-03T01:25:37.831Z,23.11
2023-07-03T01:26:16.179Z,23.11
2023-07-03T01:26:49.030Z,23.11
2023-07-03T01:27:40.605Z,23.11
2023-07-03T01:28:15.881Z,23.09
2023-07-03T01:28:53.490Z,23.10
2023-07-03T01:29:26.091Z,23.10
2023-07-03T01:30:02.815Z,23.11
2023-07-03T01:30:36.155Z,23.11
2023-07-03T01:31:09.279Z,23.13
2023-07-03T01:31:45.830Z,23.13
2023-07-03T01:32:21.130Z,23.14
2023-07-03T01:32:55.698Z,23.14
2023-07-03T01:33:34.766Z,23.14
2023-07-03T01:34:10.294Z,23.11
2023-07-03T01:34:46.982Z,23.16
2023-07-03T01:35:23.365Z,23.14
2023-07-03T01:35:55.950Z,23.14
2023-07-03T01:36:29.727Z,23.15
2023-07-03T01:37:07.723Z,23.16
2023-07-03T01:37:43.699Z,23.16
2023-07-03T01:38:19.386Z,23.17
2023-07-03T01:38:55.696Z,23.18
2023-07-03T01:39:31.365Z,23.19
2023-07-03T01:40:05.044Z,23.18
2023-07-03T01:40:41.619Z,23.19
2023-07-03T01:41:16.840Z,23.19
2023-07-03T01:41:49.900Z,23.19
2023-07-03T01:42:25.776Z,23.19
2023-07-03T01:42:59.154Z,23.19
2023-07-03T01:43:31.949Z,23.20
2023-07-03T01:44:07.155Z,23.21
2023-07-03T01:44:39.553Z,23.20
2023-07-03T01:45:12.097Z,23.21
2023-07-03T01:45:50.148Z,23.23
2023-07-03T01:46:26.180Z,23.20
2023-07-03T01:47:05.003Z,23.20
2023-07-03T01:47:40.566Z,23.20
2023-07-03T01:48:13.150Z,23.19
2023-07-03T01:48:45.476Z,23.23
2023-07-03T01:49:20.891Z,23.21
2023-07-03T01:49:53.089Z,23.19
2023-07-03T01:50:30.116Z,23.21
2023-07-03T01:51:07.574Z,23.19
2023-07-03T01:51:49.162Z,23.19
2023-07-03T01:52:28.981Z,23.18
2023-07-03T01:53:06.205Z,23.15
2023-07-03T01:53:44.652Z,23.14
2023-07-03T01:54:27.824Z,23.16
2023-07-03T01:55:09.383Z,23.15
2023-07-03T01:55:46.527Z,23.13
2023-07-03T01:56:27.289Z,23.12
2023-07-03T01:57:02.566Z,23.13
2023-07-03T01:57:43.389Z,23.12
2023-07-03T01:58:31.138Z,23.12
2023-07-03T01:59:08.979Z,23.10
2023-07-03T01:59:42.517Z,23.10
2023-07-03T02:00:29.882Z,23.10
2023-07-03T02:01:06.483Z,23.08
2023-07-03T02:01:48.272Z,23.11
2023-07-03T02:02:27.162Z,23.10
2023-07-03T02:03:07.291Z,23.10
2023-07-03T02:03:45.050Z,23.09
2023-07-03T02:04:27.429Z,23.10
2023-07-03T02:05:05.882Z,23.10
2023-07-03T02:05:40.510Z,23.10
2023-07-03T02:06:22.678Z,23.10
2023-07-03T02:06:57.164Z,23.09
2023-07-03T02:07:30.982Z,23.08
2023-07-03T02:08:07.474Z,23.07
2023-07-03T02:08:40.228Z,23.06
2023-07-03T02:09:13.535Z,23.05
2023-07-03T02:09:53.031Z,23.05
2023-07-03T02:10:28.146Z,23.03
2023-07-03T02:11:01.548Z,23.00
2023-07-03T02:11:36.558Z,22.99
2023-07-03T02:12:11.227Z,22.94
2023-07-03T02:12:46.045Z,22.93
2023-07-03T02:13:23.158Z,22.94
2023-07-03T02:13:57.630Z,22.92
2023-07-03T02:14:35.969Z,22.92
2023-07-03T02:15:12.760Z,22.95
2023-07-03T02:15:45.068Z,22.94
2023-07-03T02:16:17.509Z,22.98
2023-07-03T02:16:50.162Z,22.99
2023-07-03T02:17:25.173Z,23.02
2023-07-03T02:17:58.489Z,23.02
2023-07-03T02:18:31.701Z,23.04
2023-07-03T02:19:07.166Z,23.06
2023-07-03T02:19:39.696Z,23.06
2023-07-03T02:20:15.758Z,23.09
2023-07-03T02:20:58.258Z,23.10
2023-07-03T02:21:30.616Z,23.10
2023-07-03T02:22:02.984Z,23.11
2023-07-03T02:22:40.038Z,23.15
2023-07-03T02:23:13.747Z,23.14
2023-07-03T02:23:48.829Z,23.17
2023-07-03T02:24:23.748Z,23.18
2023-07-03T02:24:57.243Z,23.18
2023-07-03T02:25:32.676Z,23.20
2023-07-03T02:26:07.525Z,23.20
2023-07-03T02:26:39.808Z,23.20
2023-07-03T02:27:12.014Z,23.24
2023-07-03T02:27:44.628Z,23.25
2023-07-03T02:28:19.479Z,23.25
2023-07-03T02:28:52.268Z,23.25
2023-07-03T02:29:24.474Z,23.26
2023-07-03T02:29:56.738Z,23.26
2023-07-03T02:30:31.644Z,23.26
2023-07-03T02:31:04.447Z,23.25
2023-07-03T02:31:36.822Z,23.25
2023-07-03T02:32:13.701Z,23.24
2023-07-03T02:32:47.545Z,23.21
2023-07-03T02:33:19.913Z,23.23
2023-07-03T02:33:52.134Z,23.24
2023-07-03T02:34:26.951Z,23.25
2023-07-03T02:34:59.228Z,23.26
2023-07-03T02:35:31.465Z,23.27
2023-07-03T02:36:06.925Z,23.27
2023-07-03T02:36:40.809Z,23.27
2023-07-03T02:37:15.288Z,23.28
2023-07-03T02:37:50.226Z,23.29
2023-07-03T02:38:22.422Z,23.27
2023-07-03T02:38:54.800Z,23.29
2023-07-03T02:39:29.714Z,23.30
2023-07-03T02:40:02.951Z,23.29
2023-07-03T02:40:38.888Z,23.29
2023-07-03T02:41:14.521Z,23.30
2023-07-03T02:41:46.801Z,23.30
2023-07-03T02:42:19.080Z,23.31
2023-07-03T02:42:51.784Z,23.32
2023-07-03T02:43:27.411Z,23.34
2023-07-03T02:44:01.380Z,23.32
2023-07-03T02:44:36.227Z,23.34
2023-07-03T02:45:12.060Z,23.36
2023-07-03T02:45:44.347Z,23.36
2023-07-03T02:46:17.832Z,23.36
2023-07-03T02:46:52.705Z,23.39
2023-07-03T02:47:25.483Z,23.39
2023-07-03T02:47:58.709Z,23.39
2023-07-03T02:48:33.786Z,23.39
2023-07-03T02:49:06.044Z,23.39
2023-07-03T02:49:38.270Z,23.41
2023-07-03T02:50:15.519Z,23.40
2023-07-03T02:50:52.209Z,23.37
2023-07-03T02:51:24.679Z,23.33
2023-07-03T02:52:02.533Z,23.30
2023-07-03T02:52:37.800Z,23.26
2023-07-03T02:53:12.247Z,23.26
2023-07-03T02:53:48.766Z,23.26
2023-07-03T02:54:22.191Z,23.26
2023-07-03T02:54:54.394Z,23.25
2023-07-03T02:55:29.563Z,23.25
2023-07-03T02:56:04.788Z,23.24
2023-07-03T02:56:38.084Z,23.22
2023-07-03T02:57:12.941Z,23.18
2023-07-03T02:57:45.248Z,23.14
2023-07-03T02:58:19.177Z,23.12
2023-07-03T02:58:54.239Z,23.10
2023-07-03T02:59:31.719Z,23.08
2023-07-03T03:00:07.241Z,23.11
2023-07-03T03:00:42.129Z,23.12
2023-07-03T03:01:14.545Z,23.14
2023-07-03T03:01:46.920Z,23.17
2023-07-03T03:02:22.941Z,23.19
2023-07-03T03:02:55.771Z,23.20
2023-07-03T03:03:28.416Z,23.20
2023-07-03T03:04:04.095Z,23.21
2023-07-03T03:04:36.836Z,23.21
2023-07-03T03:05:10.796Z,23.24
2023-07-03T03:05:46.424Z,23.25
2023-07-03T03:06:18.683Z,23.25
2023-07-03T03:06:53.564Z,23.27
2023-07-03T03:07:25.947Z,23.32
2023-07-03T03:07:58.438Z,23.31
2023-07-03T03:08:30.726Z,23.32
2023-07-03T03:09:06.460Z,23.34
2023-07-03T03:09:40.213Z,23.33
2023-07-03T03:10:12.769Z,23.36
2023-07-03T03:10:47.610Z,23.38
2023-07-03T03:11:22.520Z,23.39
2023-07-03T03:11:58.371Z,23.41
2023-07-03T03:12:33.288Z,23.42
2023-07-03T03:13:06.015Z,23.44
2023-07-03T03:13:39.551Z,23.46
2023-07-03T03:14:12.003Z,23.47
2023-07-03T03:14:46.819Z,23.48
2023-07-03T03:15:19.278Z,23.50
2023-07-03T03:15:52.907Z,23.51
2023-07-03T03:16:28.047Z,23.54
2023-07-03T03:17:00.414Z,23.54
2023-07-03T03:17:32.677Z,23.54
2023-07-03T03:18:07.815Z,23.55
2023-07-03T03:18:40.268Z,23.55
2023-07-03T03:19:12.572Z,23.55
2023-07-03T03:19:47.902Z,23.57
2023-07-03T03:20:20.190Z,23.55
2023-07-03T03:20:52.733Z,23.54
2023-07-03T03:21:27.632Z,23.53
2023-07-03T03:22:00.124Z,23.51
2023-07-03T03:22:32.435Z,23.52
2023-07-03T03:23:07.263Z,23.51
2023-07-03T03:23:39.486Z,23.52
2023-07-03T03:24:11.849Z,23.52
2023-07-03T03:25:06.806Z,23.52
2023-07-03T03:26:57.223Z,23.37
2023-07-03T03:27:29.595Z,23.38
2023-07-03T03:28:01.821Z,23.37
2023-07-03T03:28:36.757Z,23.37
2023-07-03T03:29:10.220Z,23.34
2023-07-03T03:29:43.575Z,23.34
2023-07-03T03:30:18.708Z,23.32
2023-07-03T03:30:52.290Z,23.31
2023-07-03T03:31:24.708Z,23.32
2023-07-03T03:32:08.561Z,23.30
2023-07-03T03:32:42.073Z,23.29
2023-07-03T03:33:14.822Z,23.29
2023-07-03T03:33:49.643Z,23.27
2023-07-03T03:34:21.883Z,23.26
2023-07-03T03:34:54.221Z,23.26
2023-07-03T03:35:29.012Z,23.27
2023-07-03T03:36:01.340Z,23.28
2023-07-03T03:36:40.095Z,23.29
2023-07-03T03:37:13.456Z,23.27
2023-07-03T03:37:46.060Z,23.29
2023-07-03T03:38:20.870Z,23.31
2023-07-03T03:38:53.161Z,23.34
2023-07-03T03:39:25.713Z,23.36
2023-07-03T03:40:00.725Z,23.36
2023-07-03T03:40:33.066Z,23.39
2023-07-03T03:41:06.081Z,23.38
2023-07-03T03:41:46.069Z,23.36
2023-07-03T03:42:20.902Z,23.35
2023-07-03T03:42:53.349Z,23.34
2023-07-03T03:43:28.678Z,23.35
2023-07-03T03:44:00.981Z,23.36
2023-07-03T03:44:33.365Z,23.36
2023-07-03T03:45:07.479Z,23.38
2023-07-03T03:45:42.595Z,23.39
2023-07-03T03:46:14.936Z,23.39
2023-07-03T03:46:47.236Z,23.40
2023-07-03T03:47:24.396Z,23.40
2023-07-03T03:47:57.217Z,23.41
2023-07-03T03:48:31.840Z,23.41
2023-07-03T03:49:07.649Z,23.40
2023-07-03T03:49:40.713Z,23.39
2023-07-03T03:50:13.509Z,23.40
2023-07-03T03:50:47.861Z,23.41
2023-07-03T03:51:22.669Z,23.40
2023-07-03T03:51:55.564Z,23.39
2023-07-03T03:52:28.463Z,23.39
2023-07-03T03:53:03.634Z,23.39
2023-07-03T03:53:36.125Z,23.39
2023-07-03T03:54:09.088Z,23.40
2023-07-03T03:54:44.043Z,23.40
2023-07-03T03:55:16.536Z,23.41
2023-07-03T03:55:51.088Z,23.42
2023-07-03T03:56:26.436Z,23.41
2023-07-03T03:56:58.896Z,23.39
2023-07-03T03:57:33.936Z,23.40
2023-07-03T03:58:07.142Z,23.39
2023-07-03T03:58:43.331Z,23.39
2023-07-03T03:59:15.850Z,23.41
2023-07-03T03:59:48.100Z,23.43
2023-07-03T04:00:24.021Z,23.44
2023-07-03T04:00:56.229Z,23.43
2023-07-03T04:01:29.282Z,23.45
2023-07-03T04:02:04.563Z,23.48
2023-07-03T04:02:36.845Z,23.47
2023-07-03T04:03:09.159Z,23.47
2023-07-03T04:03:46.447Z,23.48
2023-07-03T04:04:19.329Z,23.48
2023-07-03T04:04:51.692Z,23.51
2023-07-03T04:05:23.917Z,23.49
2023-07-03T04:05:58.859Z,23.53
2023-07-03T04:06:31.290Z,23.51
2023-07-03T04:07:04.572Z,23.52
2023-07-03T04:07:40.425Z,23.54
2023-07-03T04:08:12.802Z,23.54
2023-07-03T04:08:45.151Z,23.57
2023-07-03T04:09:19.954Z,23.58
2023-07-03T04:09:52.258Z,23.59
2023-07-03T04:10:24.449Z,23.60
2023-07-03T04:10:59.819Z,23.61
2023-07-03T04:11:33.114Z,23.62
2023-07-03T04:12:06.616Z,23.64
2023-07-03T04:12:44.031Z,23.65
2023-07-03T04:13:16.311Z,23.66
2023-07-03T04:13:48.620Z,23.68
2023-07-03T04:14:23.479Z,23.70
2023-07-03T04:14:55.662Z,23.72
2023-07-03T04:15:32.775Z,23.73
2023-07-03T04:16:08.335Z,23.74
2023-07-03T04:16:40.746Z,23.75
2023-07-03T04:17:13.103Z,23.78
2023-07-03T04:17:45.367Z,23.78
2023-07-03T04:18:20.200Z,23.81
2023-07-03T04:18:52.521Z,23.81
2023-07-03T04:19:25.040Z,23.83
2023-07-03T04:19:59.981Z,23.83
2023-07-03T04:20:33.859Z,23.84
2023-07-03T04:21:06.227Z,23.86
2023-07-03T04:21:41.678Z,23.87
2023-07-03T04:22:13.935Z,23.88
2023-07-03T04:22:46.506Z,23.90
2023-07-03T04:23:19.301Z,23.93
2023-07-03T04:23:54.320Z,23.94
2023-07-03T04:24:26.598Z,23.96
2023-07-03T04:24:58.879Z,23.99
2023-07-03T04:25:33.775Z,24.01
2023-07-03T04:26:06.176Z,24.02
2023-07-03T04:26:41.912Z,24.03
2023-07-03T04:27:17.693Z,24.05
2023-07-03T04:27:54.083Z,24.05
2023-07-03T04:28:26.790Z,24.06
2023-07-03T04:29:03.650Z,24.06
2023-07-03T04:29:37.445Z,24.06
2023-07-03T04:30:12.166Z,24.08
2023-07-03T04:30:47.902Z,24.07
2023-07-03T04:31:21.871Z,24.09
2023-07-03T04:31:55.695Z,24.10
2023-07-03T04:32:34.439Z,24.12
2023-07-03T04:33:09.250Z,24.10
2023-07-03T04:33:44.029Z,24.12
2023-07-03T04:34:19.602Z,24.15
2023-07-03T04:34:52.967Z,24.16
2023-07-03T04:35:26.224Z,24.19
2023-07-03T04:36:02.250Z,24.19
2023-07-03T04:36:35.091Z,24.20
2023-07-03T04:37:08.225Z,24.22
2023-07-03T04:37:43.976Z,24.23
2023-07-03T04:38:19.163Z,24.25
2023-07-03T04:38:58.481Z,24.26
2023-07-03T04:39:34.110Z,24.26
2023-07-03T04:40:10.101Z,24.27
2023-07-03T04:40:43.856Z,24.28
2023-07-03T04:41:19.719Z,24.30
2023-07-03T04:41:51.956Z,24.30
2023-07-03T04:42:24.592Z,24.31
2023-07-03T04:43:01.978Z,24.33
2023-07-03T04:43:34.218Z,24.33
2023-07-03T04:44:07.771Z,24.34
2023-07-03T04:44:40.064Z,24.38
2023-07-03T04:45:17.010Z,24.40
2023-07-03T04:45:51.668Z,24.40
2023-07-03T04:46:26.930Z,24.42
2023-07-03T04:47:06.316Z,24.43
2023-07-03T04:48:02.153Z,24.43
2023-07-03T04:48:37.101Z,24.44
2023-07-03T04:49:09.374Z,24.45
2023-07-03T04:49:41.743Z,24.47
2023-07-03T04:50:17.601Z,24.49
2023-07-03T04:50:50.980Z,24.49
2023-07-03T04:51:23.336Z,24.50
2023-07-03T04:51:59.803Z,24.52
2023-07-03T04:52:32.166Z,24.50
2023-07-03T04:53:05.159Z,24.50
2023-07-03T04:53:43.466Z,24.49
2023-07-03T04:54:15.673Z,24.49
2023-07-03T04:54:47.939Z,24.51
2023-07-03T04:55:22.960Z,24.52
2023-07-03T04:55:55.440Z,24.53
2023-07-03T04:56:28.664Z,24.52
2023-07-03T04:57:38.130Z,24.51
2023-07-03T04:58:13.075Z,24.49
2023-07-03T04:58:49.158Z,24.48
2023-07-03T04:59:21.664Z,24.47
2023-07-03T04:59:56.290Z,24.47
2023-07-03T05:00:31.584Z,24.49
2023-07-03T05:01:06.308Z,24.48
2023-07-03T05:01:38.692Z,24.48
2023-07-03T05:02:13.837Z,24.49
2023-07-03T05:02:47.371Z,24.48
2023-07-03T05:03:19.977Z,24.49
2023-07-03T05:03:55.069Z,24.52
2023-07-03T05:04:27.346Z,24.53
2023-07-03T05:04:59.705Z,24.55
2023-07-03T05:05:34.718Z,24.57
2023-07-03T05:06:06.990Z,24.58
2023-07-03T05:06:40.449Z,24.62
2023-07-03T05:07:15.248Z,24.62
2023-07-03T05:07:47.789Z,24.62
2023-07-03T05:08:20.065Z,24.62
2023-07-03T05:08:54.905Z,24.62
2023-07-03T05:09:27.425Z,24.61
2023-07-03T05:09:59.684Z,24.62
2023-07-03T05:10:32.176Z,24.62
2023-07-03T05:11:07.001Z,24.61
2023-07-03T05:11:39.237Z,24.60
2023-07-03T05:12:11.862Z,24.59
2023-07-03T05:12:47.251Z,24.59
2023-07-03T05:13:22.129Z,24.58
2023-07-03T05:13:54.355Z,24.58
2023-07-03T05:14:29.373Z,24.58
2023-07-03T05:15:02.021Z,24.58
2023-07-03T05:15:34.366Z,24.59
2023-07-03T05:16:09.467Z,24.58
2023-07-03T05:16:41.754Z,24.57
2023-07-03T05:17:14.404Z,24.55
2023-07-03T05:17:53.272Z,24.55
2023-07-03T05:18:25.872Z,24.52
2023-07-03T05:18:58.284Z,24.52
2023-07-03T05:19:33.166Z,24.51
2023-07-03T05:20:07.615Z,24.50
2023-07-03T05:20:39.910Z,24.48
2023-07-03T05:21:14.773Z,24.46
2023-07-03T05:21:46.978Z,24.45
2023-07-03T05:22:19.199Z,24.44
2023-07-03T05:22:54.121Z,24.41
2023-07-03T05:23:26.502Z,24.39
2023-07-03T05:23:58.783Z,24.40
2023-07-03T05:24:33.568Z,24.39
2023-07-03T05:25:07.625Z,24.38
2023-07-03T05:25:42.533Z,24.38
2023-07-03T05:26:14.872Z,24.38
2023-07-03T05:26:47.152Z,24.38
2023-07-03T05:27:21.974Z,24.38
2023-07-03T05:27:54.226Z,24.36
2023-07-03T05:28:29.008Z,24.38
2023-07-03T05:29:03.842Z,24.35
2023-07-03T05:29:36.094Z,24.36
2023-07-03T05:30:10.221Z,24.37
2023-07-03T05:30:45.070Z,24.37
2023-07-03T05:31:17.855Z,24.38
2023-07-03T05:31:50.326Z,24.39
2023-07-03T05:32:25.314Z,24.39
2023-07-03T05:32:57.698Z,24.39
2023-07-03T05:33:33.645Z,24.41
2023-07-03T05:34:05.998Z,24.40
2023-07-03T05:34:39.972Z,24.42
2023-07-03T05:35:15.023Z,24.41
2023-07-03T05:35:51.038Z,24.41
2023-07-03T05:36:27.045Z,24.40
2023-07-03T05:37:01.956Z,24.40
2023-07-03T05:37:35.457Z,24.40
2023-07-03T05:38:07.735Z,24.39
2023-07-03T05:38:42.551Z,24.38
2023-07-03T05:39:14.806Z,24.38
2023-07-03T05:39:48.551Z,24.35
2023-07-03T05:40:23.694Z,24.35
2023-07-03T05:40:56.283Z,24.34
2023-07-03T05:41:28.517Z,24.34
2023-07-03T05:42:03.327Z,24.33
2023-07-03T05:42:36.362Z,24.38
2023-07-03T05:43:11.259Z,24.39
2023-07-03T05:43:46.057Z,24.44
2023-07-03T05:44:18.454Z,24.46
2023-07-03T05:44:53.945Z,24.48
2023-07-03T05:45:26.304Z,24.50
2023-07-03T05:45:58.722Z,24.50
2023-07-03T05:46:33.539Z,24.52
2023-07-03T05:47:18.500Z,24.52
2023-07-03T05:47:50.888Z,24.50
2023-07-03T05:48:25.916Z,24.50
2023-07-03T05:48:58.222Z,24.51
2023-07-03T05:50:25.592Z,24.48
2023-07-03T05:51:03.627Z,24.48
2023-07-03T05:51:35.922Z,24.47
2023-07-03T05:52:12.596Z,24.47
2023-07-03T05:52:45.644Z,24.46
2023-07-03T05:53:22.593Z,24.48
2023-07-03T05:53:56.654Z,24.49
2023-07-03T05:54:28.888Z,24.52
2023-07-03T05:55:03.964Z,24.54
2023-07-03T05:55:36.336Z,24.56
2023-07-03T05:56:11.416Z,24.58
2023-07-03T05:56:44.462Z,24.60
2023-07-03T05:58:44.664Z,24.54
2023-07-03T05:59:19.474Z,24.56
2023-07-03T05:59:52.089Z,24.58
2023-07-03T06:00:28.674Z,24.62
2023-07-03T06:01:01.579Z,24.64
2023-07-03T06:01:33.980Z,24.64
2023-07-03T06:02:11.966Z,24.66
2023-07-03T06:02:45.507Z,24.59
2023-07-03T06:03:21.334Z,24.56
2023-07-03T06:04:26.640Z,24.57
2023-07-03T06:05:01.616Z,24.59
2023-07-03T06:05:34.275Z,24.62
2023-07-03T06:06:07.530Z,24.67
2023-07-03T06:06:42.402Z,24.71
2023-07-03T06:07:14.883Z,24.78
2023-07-03T06:07:47.446Z,24.84
2023-07-03T06:08:22.456Z,24.90
2023-07-03T06:08:54.763Z,24.98
2023-07-03T06:09:29.494Z,25.04
2023-07-03T06:10:04.749Z,25.12
2023-07-03T06:10:37.052Z,25.19
2023-07-03T06:11:10.055Z,25.28
2023-07-03T06:11:44.919Z,25.35
2023-07-03T06:12:17.294Z,25.41
2023-07-03T06:12:49.542Z,25.46
2023-07-03T06:13:24.410Z,25.51
2023-07-03T06:13:56.737Z,25.54
2023-07-03T06:14:33.379Z,25.57
2023-07-03T06:15:09.817Z,25.57
2023-07-03T06:15:42.133Z,25.56
2023-07-03T06:16:16.701Z,25.56
2023-07-03T06:16:53.306Z,25.54
2023-07-03T06:17:26.419Z,25.52
2023-07-03T06:18:03.252Z,25.50
2023-07-03T06:18:35.462Z,25.47
2023-07-03T06:19:07.717Z,25.40
2023-07-03T06:19:42.611Z,25.35
2023-07-03T06:20:15.284Z,25.29
2023-07-03T06:20:48.093Z,25.27
2023-07-03T06:21:22.863Z,25.26
2023-07-03T06:21:55.624Z,25.28
2023-07-03T06:22:28.001Z,25.31
2023-07-03T06:23:02.850Z,25.34
2023-07-03T06:23:35.034Z,25.37
2023-07-03T06:24:09.959Z,25.38
2023-07-03T06:24:44.817Z,25.41
2023-07-03T06:25:17.286Z,25.44
2023-07-03T06:25:49.685Z,25.48
2023-07-03T06:26:24.861Z,25.51
2023-07-03T06:26:58.587Z,25.55
2023-07-03T06:27:33.452Z,25.55
2023-07-03T06:28:06.362Z,25.56
2023-07-03T06:28:38.688Z,25.58
2023-07-03T06:29:16.083Z,25.60
2023-07-03T06:29:51.072Z,25.63
2023-07-03T06:30:23.407Z,25.64
2023-07-03T06:30:58.323Z,25.67
2023-07-03T06:31:30.709Z,25.69
2023-07-03T06:32:03.040Z,25.74
2023-07-03T06:32:37.958Z,25.77
2023-07-03T06:33:10.321Z,25.79
2023-07-03T06:33:42.686Z,25.81
2023-07-03T06:34:17.475Z,25.84
2023-07-03T06:34:49.789Z,25.87
2023-07-03T06:35:22.134Z,25.91
2023-07-03T06:35:57.032Z,25.93
2023-07-03T06:36:29.525Z,25.95
2023-07-03T06:37:04.228Z,25.97
2023-07-03T06:37:39.241Z,26.00
2023-07-03T06:38:11.497Z,26.03
2023-07-03T06:38:43.777Z,26.05
2023-07-03T06:39:18.973Z,26.08
2023-07-03T06:39:51.191Z,26.11
2023-07-03T06:40:26.789Z,26.14
2023-07-03T06:41:00.117Z,26.17
2023-07-03T06:41:35.836Z,26.18
2023-07-03T06:42:11.442Z,26.20
2023-07-03T06:42:48.125Z,26.19
2023-07-03T06:43:24.566Z,26.24
2023-07-03T06:43:59.740Z,26.26
2023-07-03T06:44:31.981Z,26.27
2023-07-03T06:45:10.897Z,26.27
2023-07-03T06:45:43.125Z,26.23
2023-07-03T06:46:16.288Z,26.18
2023-07-03T06:46:52.424Z,26.19
2023-07-03T06:47:24.779Z,26.17
2023-07-03T06:47:57.742Z,26.17
2023-07-03T06:48:32.793Z,26.17
2023-07-03T06:49:05.446Z,26.17
2023-07-03T06:49:38.155Z,26.19
2023-07-03T06:50:13.748Z,26.21
2023-07-03T06:50:46.013Z,26.24
2023-07-03T06:51:18.223Z,26.24
2023-07-03T06:51:53.087Z,26.28
2023-07-03T06:52:25.458Z,26.31
2023-07-03T06:53:00.210Z,26.34
2023-07-03T06:53:33.018Z,26.36
2023-07-03T06:54:05.667Z,26.37
2023-07-03T06:54:40.498Z,26.36
2023-07-03T06:55:13.004Z,26.34
2023-07-03T06:55:45.201Z,26.33
2023-07-03T06:56:23.561Z,26.33
2023-07-03T06:56:55.779Z,26.31
2023-07-03T06:57:28.037Z,26.27
2023-07-03T06:58:04.404Z,26.24
2023-07-03T06:58:36.869Z,26.24
2023-07-03T06:59:09.202Z,26.25
2023-07-03T06:59:44.004Z,26.25
2023-07-03T07:00:19.989Z,26.25
2023-07-03T07:00:52.611Z,26.24
2023-07-03T07:01:35.372Z,26.22
2023-07-03T07:02:08.004Z,26.18
2023-07-03T07:02:40.512Z,26.16
2023-07-03T07:03:15.430Z,26.11
2023-07-03T07:03:48.056Z,26.08
2023-07-03T07:04:20.479Z,26.07
2023-07-03T07:05:00.041Z,26.06
2023-07-03T07:05:55.861Z,25.99
2023-07-03T07:06:33.957Z,25.92
2023-07-03T07:07:16.597Z,25.84
2023-07-03T07:07:49.006Z,25.80
2023-07-03T07:11:00.513Z,25.71
2023-07-03T07:11:36.218Z,25.76
2023-07-03T07:12:11.615Z,25.79
2023-07-03T07:12:43.824Z,25.81
2023-07-03T07:13:16.192Z,25.84
2023-07-03T07:13:53.457Z,25.86
2023-07-03T07:14:40.792Z,25.85
2023-07-03T07:15:13.005Z,25.86
2023-07-03T07:15:50.633Z,25.88
2023-07-03T07:16:25.223Z,25.92
2023-07-03T07:16:58.967Z,25.93
2023-07-03T07:19:29.401Z,25.92
2023-07-03T07:20:01.885Z,25.93
2023-07-03T07:20:37.634Z,25.98
2023-07-03T07:21:12.744Z,26.01
2023-07-03T07:21:45.324Z,26.04
2023-07-03T07:22:20.089Z,26.04
2023-07-03T07:22:52.470Z,26.05
2023-07-03T07:23:24.767Z,26.06
2023-07-03T07:24:01.756Z,26.07
2023-07-03T07:24:34.095Z,26.04
2023-07-03T07:25:06.903Z,26.05
2023-07-03T07:25:41.740Z,26.05
2023-07-03T07:26:14.008Z,26.04
2023-07-03T07:26:49.893Z,26.04
2023-07-03T07:27:22.112Z,26.03
2023-07-03T07:27:54.314Z,26.03
2023-07-03T07:28:29.113Z,26.05
2023-07-03T07:29:01.400Z,26.04
2023-07-03T07:29:36.835Z,26.05
2023-07-03T07:30:10.483Z,26.06
2023-07-03T07:30:42.680Z,26.06
2023-07-03T07:31:25.775Z,26.05
2023-07-03T07:31:58.844Z,26.05
2023-07-03T07:32:33.916Z,26.04
2023-07-03T07:33:06.215Z,26.04
2023-07-03T07:33:41.023Z,26.03
2023-07-03T07:34:13.669Z,26.02
2023-07-03T07:34:45.935Z,26.01
2023-07-03T07:35:21.399Z,25.98
2023-07-03T07:35:53.803Z,25.94
2023-07-03T07:36:27.741Z,25.92
2023-07-03T07:37:02.842Z,25.90
2023-07-03T07:37:35.065Z,25.90
2023-07-03T07:38:07.294Z,25.90
2023-07-03T07:38:42.077Z,25.91
2023-07-03T07:39:14.313Z,25.92